Aeroporto :
LOGIN :

Iscrizione | Disclaimer

   EN    FR    IT 

 










Sommario :    VFR   VFR Marginale   IFR   IFR Intensivo   IFR Molto Intensivo
Visibilità : 
Base nubi : 
>= 8 km
>= 3000ft
5 / 8 km
1000 / 3000 ft
1500m / 5 km
500 / 1000 ft
800 / 1500m
200 / 500 ft
< 800m
< 200 ft
Simboli :   Temporali  Nebbia  Neve Forte  Precipitazioni Forti  Vento > 20 kt
SIGMETs :   Varie  Temporali  Ghiacco  Turbolenza  Onda orograficha  Ceneri Vulcaniche






- Altitudine del aeroporto : 0 ft


ENSL - Sleipner A Platform

ULTIMO METAR :
  • 242150Z AUTO 29015KT 9999NDV -RA BKN019/// 06/05 Q1014 W04/S4

METARs OBSOLETI :
  • 242120Z AUTO 27018KT 9999NDV SCT014/// BKN036/// 07/04 Q1014 W05/S4
  • 242050Z AUTO 26017KT 9999NDV SCT033/// 07/04 Q1014 W05/S4
  • 242020Z AUTO 27018KT 9999NDV BKN019/// 07/03 Q1014 W05/S4
  • 241950Z AUTO 28018KT 9999NDV FEW018/// SCT027/// 07/04 Q1014 W05/S5
  • 241920Z AUTO 28016KT 9999NDV FEW016/// 07/04 Q1014 W05/S5

Previsioni scadute.



MetMap, La meteo Aeronautica in un colpo d'occhio ! - Copyright ORBIFLY Dicembre 2007 - Disclaimer

ORBIFLY MET'MAP TEAM :

Programmazione e sviluppo : Alexandra Zaïnal
Concezione : Baudouin d'Aumeries
Aiuto per la programmazione : Marc-Olivier Méhu
Supporto tecnico e logistico : Manuel Goepfert
Aiuto per la traduzione : Arnaldo La Scala

Contatto : metmap@orbifly.com




FONTI E CREDITI :

   NOAA